sensor_id;sensor_type;location;lat;lon;timestamp;P1;durP1;ratioP1;P2;durP2;ratioP2
16994;SDS011;8614;48.522;9.206;2023-03-01T03:03:04;21.93;;;19.60;;
16994;SDS011;8614;48.522;9.206;2023-03-01T03:05:32;24.10;;;20.60;;
16994;SDS011;8614;48.522;9.206;2023-03-01T03:08:01;23.23;;;19.83;;
16994;SDS011;8614;48.522;9.206;2023-03-01T03:10:35;25.10;;;19.97;;
16994;SDS011;8614;48.522;9.206;2023-03-01T03:13:05;22.57;;;20.03;;
16994;SDS011;8614;48.522;9.206;2023-03-01T03:15:33;23.53;;;20.10;;
16994;SDS011;8614;48.522;9.206;2023-03-01T03:18:02;22.43;;;19.70;;
16994;SDS011;8614;48.522;9.206;2023-03-01T03:20:32;25.17;;;21.43;;
16994;SDS011;8614;48.522;9.206;2023-03-01T03:23:00;23.73;;;20.30;;
16994;SDS011;8614;48.522;9.206;2023-03-01T03:25:27;21.73;;;19.43;;
16994;SDS011;8614;48.522;9.206;2023-03-01T03:27:55;23.83;;;21.03;;
16994;SDS011;8614;48.522;9.206;2023-03-01T03:30:23;28.07;;;21.40;;
16994;SDS011;8614;48.522;9.206;2023-03-01T03:32:51;23.87;;;19.73;;
16994;SDS011;8614;48.522;9.206;2023-03-01T03:35:21;21.47;;;19.10;;
16994;SDS011;8614;48.522;9.206;2023-03-01T03:37:49;22.47;;;20.17;;
16994;SDS011;8614;48.522;9.206;2023-03-01T03:40:32;24.67;;;20.37;;
16994;SDS011;8614;48.522;9.206;2023-03-01T03:43:01;23.77;;;20.37;;
16994;SDS011;8614;48.522;9.206;2023-03-01T03:45:28;24.30;;;21.43;;
16994;SDS011;8614;48.522;9.206;2023-03-01T03:47:58;24.97;;;20.63;;
16994;SDS011;8614;48.522;9.206;2023-03-01T03:50:26;24.93;;;20.50;;
16994;SDS011;8614;48.522;9.206;2023-03-01T03:52:53;24.20;;;20.30;;
16994;SDS011;8614;48.522;9.206;2023-03-01T03:55:20;24.13;;;20.00;;
16994;SDS011;8614;48.522;9.206;2023-03-01T03:57:48;22.87;;;20.20;;
16994;SDS011;8614;48.522;9.206;2023-03-01T04:00:17;24.03;;;20.93;;
16994;SDS011;8614;48.522;9.206;2023-03-01T04:02:46;22.60;;;19.83;;
16994;SDS011;8614;48.522;9.206;2023-03-01T04:05:14;22.40;;;20.00;;
16994;SDS011;8614;48.522;9.206;2023-03-01T04:07:45;24.13;;;20.37;;
16994;SDS011;8614;48.522;9.206;2023-03-01T04:10:13;23.27;;;20.77;;
16994;SDS011;8614;48.522;9.206;2023-03-01T04:12:42;22.73;;;20.30;;
16994;SDS011;8614;48.522;9.206;2023-03-01T04:15:10;23.03;;;19.93;;
16994;SDS011;8614;48.522;9.206;2023-03-01T04:17:41;22.47;;;19.33;;
16994;SDS011;8614;48.522;9.206;2023-03-01T04:20:10;24.07;;;20.47;;
16994;SDS011;8614;48.522;9.206;2023-03-01T04:22:38;26.50;;;21.93;;
16994;SDS011;8614;48.522;9.206;2023-03-01T04:25:08;24.53;;;21.70;;
16994;SDS011;8614;48.522;9.206;2023-03-01T04:27:39;23.63;;;21.10;;
16994;SDS011;8614;48.522;9.206;2023-03-01T04:30:07;24.00;;;21.17;;
16994;SDS011;8614;48.522;9.206;2023-03-01T04:32:35;24.87;;;21.50;;
16994;SDS011;8614;48.522;9.206;2023-03-01T04:35:02;23.40;;;20.90;;
16994;SDS011;8614;48.522;9.206;2023-03-01T04:37:29;25.50;;;20.50;;
16994;SDS011;8614;48.522;9.206;2023-03-01T04:39:56;24.03;;;20.97;;
16994;SDS011;8614;48.522;9.206;2023-03-01T04:42:24;25.30;;;21.10;;
16994;SDS011;8614;48.522;9.206;2023-03-01T04:44:51;23.70;;;21.10;;
16994;SDS011;8614;48.522;9.206;2023-03-01T04:47:18;22.83;;;20.37;;
16994;SDS011;8614;48.522;9.206;2023-03-01T04:49:45;24.83;;;20.73;;
16994;SDS011;8614;48.522;9.206;2023-03-01T04:52:12;24.40;;;21.47;;
16994;SDS011;8614;48.522;9.206;2023-03-01T04:54:39;24.73;;;20.63;;
16994;SDS011;8614;48.522;9.206;2023-03-01T04:57:06;24.53;;;21.07;;
16994;SDS011;8614;48.522;9.206;2023-03-01T04:59:34;26.63;;;21.70;;
16994;SDS011;8614;48.522;9.206;2023-03-01T05:02:01;26.90;;;22.20;;
16994;SDS011;8614;48.522;9.206;2023-03-01T05:04:28;25.93;;;21.50;;
16994;SDS011;8614;48.522;9.206;2023-03-01T05:06:56;25.80;;;22.73;;
16994;SDS011;8614;48.522;9.206;2023-03-01T05:09:23;25.07;;;21.00;;
16994;SDS011;8614;48.522;9.206;2023-03-01T05:11:50;26.07;;;21.53;;
16994;SDS011;8614;48.522;9.206;2023-03-01T05:14:17;27.03;;;21.30;;
16994;SDS011;8614;48.522;9.206;2023-03-01T05:16:45;24.43;;;21.03;;
16994;SDS011;8614;48.522;9.206;2023-03-01T05:19:12;28.37;;;22.90;;
16994;SDS011;8614;48.522;9.206;2023-03-01T05:21:40;24.47;;;21.40;;
16994;SDS011;8614;48.522;9.206;2023-03-01T05:24:21;25.40;;;21.60;;
16994;SDS011;8614;48.522;9.206;2023-03-01T05:26:48;22.93;;;20.37;;
16994;SDS011;8614;48.522;9.206;2023-03-01T05:29:17;25.90;;;22.13;;
16994;SDS011;8614;48.522;9.206;2023-03-01T05:31:51;24.27;;;21.63;;
16994;SDS011;8614;48.522;9.206;2023-03-01T05:34:19;24.43;;;21.53;;
16994;SDS011;8614;48.522;9.206;2023-03-01T05:36:50;25.90;;;20.87;;
16994;SDS011;8614;48.522;9.206;2023-03-01T05:39:18;23.67;;;20.40;;
16994;SDS011;8614;48.522;9.206;2023-03-01T05:41:47;24.60;;;21.37;;
16994;SDS011;8614;48.522;9.206;2023-03-01T05:44:14;25.93;;;22.33;;
16994;SDS011;8614;48.522;9.206;2023-03-01T05:46:41;26.63;;;22.67;;
16994;SDS011;8614;48.522;9.206;2023-03-01T05:49:09;25.97;;;21.43;;
16994;SDS011;8614;48.522;9.206;2023-03-01T05:51:36;25.53;;;21.93;;
16994;SDS011;8614;48.522;9.206;2023-03-01T05:54:02;27.03;;;23.03;;
16994;SDS011;8614;48.522;9.206;2023-03-01T05:56:32;24.77;;;22.13;;
16994;SDS011;8614;48.522;9.206;2023-03-01T05:58:59;26.20;;;22.40;;
16994;SDS011;8614;48.522;9.206;2023-03-01T06:01:26;28.00;;;22.00;;
16994;SDS011;8614;48.522;9.206;2023-03-01T06:03:54;27.33;;;22.57;;
16994;SDS011;8614;48.522;9.206;2023-03-01T06:06:23;26.00;;;21.40;;
16994;SDS011;8614;48.522;9.206;2023-03-01T06:08:50;25.27;;;22.17;;
16994;SDS011;8614;48.522;9.206;2023-03-01T06:11:17;27.53;;;22.57;;
16994;SDS011;8614;48.522;9.206;2023-03-01T06:13:44;25.00;;;21.37;;
16994;SDS011;8614;48.522;9.206;2023-03-01T06:16:12;24.10;;;21.17;;
16994;SDS011;8614;48.522;9.206;2023-03-01T06:18:39;24.20;;;21.63;;
16994;SDS011;8614;48.522;9.206;2023-03-01T06:21:07;26.60;;;22.90;;
16994;SDS011;8614;48.522;9.206;2023-03-01T06:23:35;25.37;;;21.97;;
16994;SDS011;8614;48.522;9.206;2023-03-01T06:26:04;25.70;;;23.00;;
16994;SDS011;8614;48.522;9.206;2023-03-01T06:28:32;24.73;;;22.00;;
16994;SDS011;8614;48.522;9.206;2023-03-01T06:30:59;28.00;;;23.30;;
16994;SDS011;8614;48.522;9.206;2023-03-01T06:33:25;27.80;;;24.10;;
16994;SDS011;8614;48.522;9.206;2023-03-01T06:35:54;33.13;;;24.27;;
16994;SDS011;8614;48.522;9.206;2023-03-01T06:38:21;27.20;;;22.97;;
16994;SDS011;8614;48.522;9.206;2023-03-01T06:40:52;26.33;;;23.53;;
16994;SDS011;8614;48.522;9.206;2023-03-01T06:43:20;25.07;;;21.80;;
16994;SDS011;8614;48.522;9.206;2023-03-01T06:45:46;25.83;;;22.07;;
16994;SDS011;8614;48.522;9.206;2023-03-01T06:48:13;28.37;;;23.63;;
16994;SDS011;8614;48.522;9.206;2023-03-01T06:50:41;28.73;;;22.73;;
16994;SDS011;8614;48.522;9.206;2023-03-01T06:53:07;26.57;;;22.23;;
16994;SDS011;8614;48.522;9.206;2023-03-01T06:55:34;25.83;;;22.03;;
16994;SDS011;8614;48.522;9.206;2023-03-01T06:58:02;24.90;;;22.20;;
16994;SDS011;8614;48.522;9.206;2023-03-01T07:00:30;25.63;;;22.87;;
16994;SDS011;8614;48.522;9.206;2023-03-01T07:02:58;23.93;;;21.27;;
16994;SDS011;8614;48.522;9.206;2023-03-01T07:05:27;25.33;;;22.53;;
16994;SDS011;8614;48.522;9.206;2023-03-01T07:07:54;30.17;;;24.83;;
16994;SDS011;8614;48.522;9.206;2023-03-01T07:10:21;27.67;;;23.73;;
16994;SDS011;8614;48.522;9.206;2023-03-01T07:12:48;26.87;;;22.60;;
16994;SDS011;8614;48.522;9.206;2023-03-01T07:15:16;26.03;;;23.23;;
16994;SDS011;8614;48.522;9.206;2023-03-01T07:17:43;26.27;;;23.07;;
16994;SDS011;8614;48.522;9.206;2023-03-01T07:20:12;25.67;;;22.33;;
16994;SDS011;8614;48.522;9.206;2023-03-01T07:22:40;28.00;;;23.67;;
16994;SDS011;8614;48.522;9.206;2023-03-01T07:25:08;27.03;;;22.60;;
16994;SDS011;8614;48.522;9.206;2023-03-01T07:27:35;25.70;;;22.93;;
16994;SDS011;8614;48.522;9.206;2023-03-01T07:30:02;25.80;;;23.07;;
16994;SDS011;8614;48.522;9.206;2023-03-01T07:32:32;25.27;;;22.30;;
16994;SDS011;8614;48.522;9.206;2023-03-01T07:34:59;25.47;;;22.57;;
16994;SDS011;8614;48.522;9.206;2023-03-01T07:37:25;28.43;;;22.87;;
16994;SDS011;8614;48.522;9.206;2023-03-01T07:39:52;24.80;;;21.63;;
16994;SDS011;8614;48.522;9.206;2023-03-01T07:42:19;25.63;;;22.33;;
16994;SDS011;8614;48.522;9.206;2023-03-01T07:44:46;28.17;;;23.13;;
16994;SDS011;8614;48.522;9.206;2023-03-01T07:47:13;27.27;;;23.63;;
16994;SDS011;8614;48.522;9.206;2023-03-01T07:49:41;25.90;;;23.00;;
16994;SDS011;8614;48.522;9.206;2023-03-01T07:52:09;25.83;;;22.50;;
16994;SDS011;8614;48.522;9.206;2023-03-01T07:54:37;28.93;;;24.00;;
16994;SDS011;8614;48.522;9.206;2023-03-01T07:57:03;25.43;;;22.83;;
16994;SDS011;8614;48.522;9.206;2023-03-01T07:59:30;28.70;;;23.90;;
16994;SDS011;8614;48.522;9.206;2023-03-01T08:01:57;25.37;;;22.30;;
16994;SDS011;8614;48.522;9.206;2023-03-01T08:04:24;24.57;;;21.97;;
16994;SDS011;8614;48.522;9.206;2023-03-01T08:06:53;27.23;;;23.97;;
16994;SDS011;8614;48.522;9.206;2023-03-01T08:09:20;29.53;;;24.07;;
16994;SDS011;8614;48.522;9.206;2023-03-01T08:11:47;28.83;;;23.47;;
16994;SDS011;8614;48.522;9.206;2023-03-01T08:14:14;24.70;;;22.20;;
16994;SDS011;8614;48.522;9.206;2023-03-01T08:16:41;26.53;;;23.60;;
16994;SDS011;8614;48.522;9.206;2023-03-01T08:19:08;28.27;;;23.90;;
16994;SDS011;8614;48.522;9.206;2023-03-01T08:21:37;25.73;;;23.03;;
16994;SDS011;8614;48.522;9.206;2023-03-01T08:24:05;27.23;;;23.13;;
16994;SDS011;8614;48.522;9.206;2023-03-01T08:26:35;25.47;;;22.77;;
16994;SDS011;8614;48.522;9.206;2023-03-01T08:29:02;29.30;;;23.70;;
16994;SDS011;8614;48.522;9.206;2023-03-01T08:31:30;24.07;;;21.17;;
16994;SDS011;8614;48.522;9.206;2023-03-01T08:34:00;26.20;;;23.37;;
16994;SDS011;8614;48.522;9.206;2023-03-01T08:36:30;26.87;;;22.40;;
16994;SDS011;8614;48.522;9.206;2023-03-01T08:38:58;25.73;;;23.03;;
16994;SDS011;8614;48.522;9.206;2023-03-01T08:41:27;26.50;;;23.80;;
16994;SDS011;8614;48.522;9.206;2023-03-01T08:43:54;26.90;;;23.83;;
16994;SDS011;8614;48.522;9.206;2023-03-01T08:46:24;25.90;;;22.83;;
16994;SDS011;8614;48.522;9.206;2023-03-01T08:48:51;26.03;;;23.30;;
16994;SDS011;8614;48.522;9.206;2023-03-01T08:51:19;27.60;;;23.60;;
16994;SDS011;8614;48.522;9.206;2023-03-01T08:53:48;26.53;;;23.80;;
16994;SDS011;8614;48.522;9.206;2023-03-01T08:56:15;25.30;;;22.63;;
16994;SDS011;8614;48.522;9.206;2023-03-01T08:58:45;26.00;;;23.40;;
16994;SDS011;8614;48.522;9.206;2023-03-01T09:01:14;25.07;;;22.33;;
16994;SDS011;8614;48.522;9.206;2023-03-01T09:03:43;27.53;;;23.77;;
16994;SDS011;8614;48.522;9.206;2023-03-01T09:06:11;24.37;;;21.90;;
16994;SDS011;8614;48.522;9.206;2023-03-01T09:08:40;24.57;;;21.93;;
16994;SDS011;8614;48.522;9.206;2023-03-01T09:11:08;26.73;;;22.70;;
16994;SDS011;8614;48.522;9.206;2023-03-01T09:13:40;27.37;;;23.13;;
16994;SDS011;8614;48.522;9.206;2023-03-01T09:16:09;27.77;;;23.77;;
16994;SDS011;8614;48.522;9.206;2023-03-01T09:18:38;25.47;;;23.00;;
16994;SDS011;8614;48.522;9.206;2023-03-01T09:21:06;26.73;;;22.77;;
16994;SDS011;8614;48.522;9.206;2023-03-01T09:23:34;25.00;;;22.50;;
16994;SDS011;8614;48.522;9.206;2023-03-01T09:26:04;25.70;;;22.90;;
16994;SDS011;8614;48.522;9.206;2023-03-01T09:28:31;28.47;;;24.13;;
16994;SDS011;8614;48.522;9.206;2023-03-01T09:30:58;27.90;;;23.57;;
16994;SDS011;8614;48.522;9.206;2023-03-01T09:33:27;26.53;;;23.83;;
16994;SDS011;8614;48.522;9.206;2023-03-01T09:35:57;25.70;;;23.03;;
16994;SDS011;8614;48.522;9.206;2023-03-01T09:38:24;28.53;;;23.17;;
16994;SDS011;8614;48.522;9.206;2023-03-01T09:40:51;26.17;;;23.20;;
16994;SDS011;8614;48.522;9.206;2023-03-01T09:43:20;25.90;;;23.30;;
16994;SDS011;8614;48.522;9.206;2023-03-01T09:45:55;25.87;;;23.17;;
16994;SDS011;8614;48.522;9.206;2023-03-01T09:48:32;27.30;;;23.73;;
16994;SDS011;8614;48.522;9.206;2023-03-01T09:51:03;26.13;;;23.33;;
16994;SDS011;8614;48.522;9.206;2023-03-01T09:53:35;27.03;;;24.20;;
16994;SDS011;8614;48.522;9.206;2023-03-01T09:56:02;26.33;;;23.60;;
16994;SDS011;8614;48.522;9.206;2023-03-01T09:58:37;27.10;;;24.13;;
16994;SDS011;8614;48.522;9.206;2023-03-01T10:01:19;25.67;;;23.00;;
16994;SDS011;8614;48.522;9.206;2023-03-01T10:06:58;27.00;;;23.97;;
16994;SDS011;8614;48.522;9.206;2023-03-01T10:09:39;25.90;;;23.17;;
16994;SDS011;8614;48.522;9.206;2023-03-01T10:12:08;25.03;;;22.47;;
16994;SDS011;8614;48.522;9.206;2023-03-01T10:14:39;26.93;;;24.13;;
16994;SDS011;8614;48.522;9.206;2023-03-01T10:17:17;26.97;;;24.20;;
16994;SDS011;8614;48.522;9.206;2023-03-01T10:19:53;24.77;;;22.27;;
16994;SDS011;8614;48.522;9.206;2023-03-01T10:22:21;26.67;;;23.97;;
16994;SDS011;8614;48.522;9.206;2023-03-01T10:24:55;26.23;;;23.53;;
16994;SDS011;8614;48.522;9.206;2023-03-01T10:27:26;25.23;;;22.60;;
16994;SDS011;8614;48.522;9.206;2023-03-01T10:30:05;24.97;;;22.27;;
16994;SDS011;8614;48.522;9.206;2023-03-01T10:32:41;25.30;;;22.23;;
16994;SDS011;8614;48.522;9.206;2023-03-01T10:35:17;23.63;;;21.13;;
16994;SDS011;8614;48.522;9.206;2023-03-01T10:37:58;25.20;;;22.60;;
16994;SDS011;8614;48.522;9.206;2023-03-01T10:40:29;30.73;;;23.40;;
16994;SDS011;8614;48.522;9.206;2023-03-01T10:42:57;26.50;;;23.60;;
16994;SDS011;8614;48.522;9.206;2023-03-01T10:45:33;23.63;;;21.23;;
16994;SDS011;8614;48.522;9.206;2023-03-01T10:48:08;25.03;;;22.30;;
16994;SDS011;8614;48.522;9.206;2023-03-01T10:50:40;26.57;;;22.90;;
16994;SDS011;8614;48.522;9.206;2023-03-01T10:53:23;24.87;;;22.17;;
16994;SDS011;8614;48.522;9.206;2023-03-01T10:55:58;22.33;;;20.17;;
16994;SDS011;8614;48.522;9.206;2023-03-01T10:58:27;22.67;;;20.33;;
16994;SDS011;8614;48.522;9.206;2023-03-01T11:00:55;24.00;;;20.50;;
16994;SDS011;8614;48.522;9.206;2023-03-01T11:03:24;24.80;;;22.23;;
16994;SDS011;8614;48.522;9.206;2023-03-01T11:05:58;23.93;;;21.43;;
16994;SDS011;8614;48.522;9.206;2023-03-01T11:08:38;23.07;;;20.57;;
16994;SDS011;8614;48.522;9.206;2023-03-01T11:11:13;22.07;;;19.77;;
16994;SDS011;8614;48.522;9.206;2023-03-01T11:13:49;24.90;;;22.20;;
16994;SDS011;8614;48.522;9.206;2023-03-01T11:16:23;23.73;;;21.10;;
16994;SDS011;8614;48.522;9.206;2023-03-01T11:18:56;22.43;;;20.23;;
16994;SDS011;8614;48.522;9.206;2023-03-01T11:21:30;24.67;;;21.23;;
16994;SDS011;8614;48.522;9.206;2023-03-01T11:24:00;23.57;;;21.13;;
16994;SDS011;8614;48.522;9.206;2023-03-01T11:26:28;23.47;;;21.10;;
16994;SDS011;8614;48.522;9.206;2023-03-01T11:29:02;23.30;;;21.00;;
16994;SDS011;8614;48.522;9.206;2023-03-01T11:31:33;23.10;;;20.73;;
16994;SDS011;8614;48.522;9.206;2023-03-01T11:34:03;23.73;;;21.43;;
16994;SDS011;8614;48.522;9.206;2023-03-01T11:36:40;23.27;;;20.83;;
16994;SDS011;8614;48.522;9.206;2023-03-01T11:39:17;23.63;;;20.73;;
16994;SDS011;8614;48.522;9.206;2023-03-01T11:41:52;23.13;;;20.53;;
16994;SDS011;8614;48.522;9.206;2023-03-01T11:44:28;23.47;;;21.13;;
16994;SDS011;8614;48.522;9.206;2023-03-01T11:47:07;23.33;;;20.83;;
16994;SDS011;8614;48.522;9.206;2023-03-01T11:49:58;23.43;;;20.93;;
16994;SDS011;8614;48.522;9.206;2023-03-01T11:52:35;23.83;;;21.33;;
16994;SDS011;8614;48.522;9.206;2023-03-01T11:55:25;24.00;;;21.50;;
16994;SDS011;8614;48.522;9.206;2023-03-01T11:58:05;24.13;;;21.63;;
16994;SDS011;8614;48.522;9.206;2023-03-01T12:00:51;22.90;;;20.50;;
16994;SDS011;8614;48.522;9.206;2023-03-01T12:03:30;24.40;;;21.70;;
16994;SDS011;8614;48.522;9.206;2023-03-01T12:06:18;22.97;;;20.57;;
16994;SDS011;8614;48.522;9.206;2023-03-01T12:08:55;24.70;;;20.63;;
16994;SDS011;8614;48.522;9.206;2023-03-01T12:11:34;21.63;;;19.40;;
16994;SDS011;8614;48.522;9.206;2023-03-01T12:14:12;21.03;;;18.93;;
16994;SDS011;8614;48.522;9.206;2023-03-01T12:17:05;20.67;;;18.53;;
16994;SDS011;8614;48.522;9.206;2023-03-01T12:20:02;21.70;;;19.40;;
16994;SDS011;8614;48.522;9.206;2023-03-01T12:22:42;20.57;;;18.57;;
16994;SDS011;8614;48.522;9.206;2023-03-01T12:25:22;22.67;;;18.70;;
16994;SDS011;8614;48.522;9.206;2023-03-01T12:27:57;21.70;;;19.50;;
16994;SDS011;8614;48.522;9.206;2023-03-01T12:30:48;21.17;;;18.93;;
16994;SDS011;8614;48.522;9.206;2023-03-01T12:33:28;20.83;;;18.73;;
16994;SDS011;8614;48.522;9.206;2023-03-01T12:36:09;20.40;;;18.33;;
16994;SDS011;8614;48.522;9.206;2023-03-01T12:38:45;22.27;;;19.97;;
16994;SDS011;8614;48.522;9.206;2023-03-01T12:41:23;22.20;;;19.63;;
16994;SDS011;8614;48.522;9.206;2023-03-01T12:44:07;21.70;;;19.43;;
16994;SDS011;8614;48.522;9.206;2023-03-01T12:46:49;25.33;;;20.70;;
16994;SDS011;8614;48.522;9.206;2023-03-01T12:49:28;21.07;;;18.80;;
16994;SDS011;8614;48.522;9.206;2023-03-01T12:52:00;21.73;;;19.53;;
16994;SDS011;8614;48.522;9.206;2023-03-01T12:54:35;21.97;;;19.70;;
16994;SDS011;8614;48.522;9.206;2023-03-01T12:57:06;21.67;;;19.57;;
16994;SDS011;8614;48.522;9.206;2023-03-01T12:59:42;20.23;;;18.20;;
16994;SDS011;8614;48.522;9.206;2023-03-01T13:02:19;22.43;;;20.10;;
16994;SDS011;8614;48.522;9.206;2023-03-01T13:04:53;21.37;;;19.17;;
16994;SDS011;8614;48.522;9.206;2023-03-01T13:07:29;22.67;;;20.27;;
16994;SDS011;8614;48.522;9.206;2023-03-01T13:10:11;21.73;;;19.10;;
16994;SDS011;8614;48.522;9.206;2023-03-01T13:13:00;21.80;;;19.60;;
16994;SDS011;8614;48.522;9.206;2023-03-01T13:15:30;22.13;;;20.00;;
16994;SDS011;8614;48.522;9.206;2023-03-01T13:17:59;20.80;;;18.70;;
16994;SDS011;8614;48.522;9.206;2023-03-01T13:20:29;21.27;;;19.07;;
16994;SDS011;8614;48.522;9.206;2023-03-01T13:23:00;20.90;;;18.90;;
16994;SDS011;8614;48.522;9.206;2023-03-01T13:25:33;23.57;;;20.33;;
16994;SDS011;8614;48.522;9.206;2023-03-01T13:31:04;24.07;;;21.47;;
16994;SDS011;8614;48.522;9.206;2023-03-01T13:33:44;23.30;;;20.57;;
16994;SDS011;8614;48.522;9.206;2023-03-01T13:45:01;21.43;;;19.23;;
16994;SDS011;8614;48.522;9.206;2023-03-01T13:47:28;25.20;;;20.43;;
16994;SDS011;8614;48.522;9.206;2023-03-01T13:49:56;22.87;;;20.37;;
16994;SDS011;8614;48.522;9.206;2023-03-01T13:52:31;23.07;;;20.70;;
16994;SDS011;8614;48.522;9.206;2023-03-01T13:55:03;24.80;;;19.80;;
16994;SDS011;8614;48.522;9.206;2023-03-01T13:57:42;23.63;;;20.50;;
16994;SDS011;8614;48.522;9.206;2023-03-01T14:00:25;23.37;;;21.07;;
16994;SDS011;8614;48.522;9.206;2023-03-01T14:03:05;24.67;;;21.00;;
16994;SDS011;8614;48.522;9.206;2023-03-01T14:05:36;23.40;;;20.57;;
16994;SDS011;8614;48.522;9.206;2023-03-01T14:08:04;24.07;;;21.37;;
16994;SDS011;8614;48.522;9.206;2023-03-01T14:10:35;23.57;;;21.17;;
16994;SDS011;8614;48.522;9.206;2023-03-01T14:13:13;22.20;;;19.93;;
16994;SDS011;8614;48.522;9.206;2023-03-01T14:15:56;23.97;;;21.50;;
16994;SDS011;8614;48.522;9.206;2023-03-01T14:18:33;22.80;;;20.40;;
16994;SDS011;8614;48.522;9.206;2023-03-01T14:21:07;22.07;;;19.77;;
16994;SDS011;8614;48.522;9.206;2023-03-01T14:23:34;22.93;;;20.43;;
16994;SDS011;8614;48.522;9.206;2023-03-01T14:26:04;22.23;;;20.00;;
16994;SDS011;8614;48.522;9.206;2023-03-01T14:28:33;22.83;;;20.47;;
16994;SDS011;8614;48.522;9.206;2023-03-01T14:33:57;21.70;;;19.57;;
16994;SDS011;8614;48.522;9.206;2023-03-01T14:36:26;23.40;;;20.90;;
16994;SDS011;8614;48.522;9.206;2023-03-01T14:38:53;21.87;;;19.67;;
16994;SDS011;8614;48.522;9.206;2023-03-01T14:41:21;21.17;;;18.97;;
16994;SDS011;8614;48.522;9.206;2023-03-01T14:43:50;22.43;;;20.00;;
16994;SDS011;8614;48.522;9.206;2023-03-01T14:46:23;23.70;;;21.30;;
16994;SDS011;8614;48.522;9.206;2023-03-01T14:48:55;22.20;;;20.13;;
16994;SDS011;8614;48.522;9.206;2023-03-01T14:51:27;21.83;;;19.63;;
16994;SDS011;8614;48.522;9.206;2023-03-01T14:53:54;22.47;;;20.27;;
16994;SDS011;8614;48.522;9.206;2023-03-01T14:56:21;21.97;;;19.67;;
16994;SDS011;8614;48.522;9.206;2023-03-01T14:58:50;23.00;;;20.20;;
16994;SDS011;8614;48.522;9.206;2023-03-01T15:01:18;22.10;;;19.90;;
16994;SDS011;8614;48.522;9.206;2023-03-01T15:03:47;22.87;;;20.43;;
16994;SDS011;8614;48.522;9.206;2023-03-01T15:06:16;22.63;;;20.27;;
16994;SDS011;8614;48.522;9.206;2023-03-01T15:08:47;21.50;;;19.30;;
16994;SDS011;8614;48.522;9.206;2023-03-01T15:11:17;22.43;;;20.33;;
16994;SDS011;8614;48.522;9.206;2023-03-01T15:13:49;23.63;;;20.53;;
16994;SDS011;8614;48.522;9.206;2023-03-01T15:16:17;22.43;;;20.10;;
16994;SDS011;8614;48.522;9.206;2023-03-01T15:18:47;23.27;;;20.87;;
16994;SDS011;8614;48.522;9.206;2023-03-01T15:21:17;23.53;;;21.10;;
16994;SDS011;8614;48.522;9.206;2023-03-01T15:23:47;23.30;;;20.80;;
16994;SDS011;8614;48.522;9.206;2023-03-01T15:26:23;23.30;;;20.97;;
16994;SDS011;8614;48.522;9.206;2023-03-01T15:28:52;25.17;;;21.67;;
16994;SDS011;8614;48.522;9.206;2023-03-01T15:31:23;24.27;;;21.87;;
16994;SDS011;8614;48.522;9.206;2023-03-01T15:33:53;22.73;;;20.20;;
16994;SDS011;8614;48.522;9.206;2023-03-01T15:36:39;24.67;;;20.57;;
16994;SDS011;8614;48.522;9.206;2023-03-01T15:39:30;24.77;;;21.77;;
16994;SDS011;8614;48.522;9.206;2023-03-01T15:42:03;22.70;;;20.40;;
16994;SDS011;8614;48.522;9.206;2023-03-01T15:44:33;22.23;;;19.73;;
16994;SDS011;8614;48.522;9.206;2023-03-01T15:47:01;22.23;;;19.87;;
16994;SDS011;8614;48.522;9.206;2023-03-01T15:49:37;22.07;;;19.83;;
16994;SDS011;8614;48.522;9.206;2023-03-01T15:52:08;22.03;;;19.63;;
16994;SDS011;8614;48.522;9.206;2023-03-01T15:54:39;22.10;;;19.30;;
16994;SDS011;8614;48.522;9.206;2023-03-01T15:57:08;27.47;;;21.23;;
16994;SDS011;8614;48.522;9.206;2023-03-01T15:59:40;23.37;;;20.67;;
16994;SDS011;8614;48.522;9.206;2023-03-01T16:02:08;23.30;;;20.80;;
16994;SDS011;8614;48.522;9.206;2023-03-01T16:04:37;24.07;;;19.87;;
16994;SDS011;8614;48.522;9.206;2023-03-01T16:07:05;23.23;;;20.63;;
16994;SDS011;8614;48.522;9.206;2023-03-01T16:09:32;22.60;;;19.80;;
16994;SDS011;8614;48.522;9.206;2023-03-01T16:11:59;21.50;;;19.30;;
16994;SDS011;8614;48.522;9.206;2023-03-01T16:14:26;21.07;;;18.87;;
16994;SDS011;8614;48.522;9.206;2023-03-01T16:16:54;22.27;;;19.80;;
16994;SDS011;8614;48.522;9.206;2023-03-01T16:19:22;22.43;;;19.23;;
16994;SDS011;8614;48.522;9.206;2023-03-01T16:21:50;22.97;;;20.10;;
16994;SDS011;8614;48.522;9.206;2023-03-01T16:24:17;21.33;;;17.90;;
16994;SDS011;8614;48.522;9.206;2023-03-01T16:26:44;25.53;;;20.00;;
16994;SDS011;8614;48.522;9.206;2023-03-01T16:29:11;22.10;;;18.90;;
16994;SDS011;8614;48.522;9.206;2023-03-01T16:31:39;21.43;;;19.13;;
16994;SDS011;8614;48.522;9.206;2023-03-01T16:34:06;20.33;;;18.13;;
16994;SDS011;8614;48.522;9.206;2023-03-01T16:36:33;20.53;;;18.50;;
16994;SDS011;8614;48.522;9.206;2023-03-01T16:39:03;21.83;;;19.50;;
16994;SDS011;8614;48.522;9.206;2023-03-01T16:41:32;20.60;;;18.50;;
16994;SDS011;8614;48.522;9.206;2023-03-01T16:44:04;22.40;;;19.10;;
16994;SDS011;8614;48.522;9.206;2023-03-01T16:46:35;19.97;;;17.40;;
16994;SDS011;8614;48.522;9.206;2023-03-01T16:49:02;21.13;;;18.90;;
16994;SDS011;8614;48.522;9.206;2023-03-01T16:51:29;24.30;;;20.07;;
16994;SDS011;8614;48.522;9.206;2023-03-01T16:53:57;21.47;;;19.27;;
16994;SDS011;8614;48.522;9.206;2023-03-01T16:56:39;21.07;;;18.87;;
16994;SDS011;8614;48.522;9.206;2023-03-01T16:59:06;22.53;;;20.20;;
16994;SDS011;8614;48.522;9.206;2023-03-01T17:01:33;21.33;;;19.10;;
16994;SDS011;8614;48.522;9.206;2023-03-01T17:04:06;23.10;;;19.07;;
16994;SDS011;8614;48.522;9.206;2023-03-01T17:06:51;20.80;;;18.57;;
16994;SDS011;8614;48.522;9.206;2023-03-01T17:10:01;21.30;;;18.70;;
16994;SDS011;8614;48.522;9.206;2023-03-01T17:17:13;22.50;;;18.93;;
16994;SDS011;8614;48.522;9.206;2023-03-01T17:24:02;21.13;;;18.10;;
16994;SDS011;8614;48.522;9.206;2023-03-01T17:27:20;20.47;;;16.93;;
16994;SDS011;8614;48.522;9.206;2023-03-01T17:30:35;20.87;;;18.70;;
16994;SDS011;8614;48.522;9.206;2023-03-01T17:33:16;21.67;;;18.97;;
16994;SDS011;8614;48.522;9.206;2023-03-01T17:35:43;21.43;;;17.77;;
16994;SDS011;8614;48.522;9.206;2023-03-01T17:38:25;19.90;;;17.80;;
16994;SDS011;8614;48.522;9.206;2023-03-01T17:40:52;19.80;;;17.80;;
16994;SDS011;8614;48.522;9.206;2023-03-01T17:43:19;19.10;;;17.23;;
16994;SDS011;8614;48.522;9.206;2023-03-01T17:45:47;18.67;;;16.63;;
16994;SDS011;8614;48.522;9.206;2023-03-01T17:48:16;17.33;;;15.60;;
16994;SDS011;8614;48.522;9.206;2023-03-01T17:50:43;18.70;;;16.77;;
16994;SDS011;8614;48.522;9.206;2023-03-01T17:53:11;18.37;;;16.07;;
16994;SDS011;8614;48.522;9.206;2023-03-01T17:55:38;20.00;;;16.50;;
16994;SDS011;8614;48.522;9.206;2023-03-01T17:58:07;19.07;;;16.93;;
16994;SDS011;8614;48.522;9.206;2023-03-01T18:00:35;19.20;;;17.20;;
16994;SDS011;8614;48.522;9.206;2023-03-01T18:03:03;19.20;;;17.27;;
16994;SDS011;8614;48.522;9.206;2023-03-01T18:05:30;18.07;;;16.00;;
16994;SDS011;8614;48.522;9.206;2023-03-01T18:07:58;19.17;;;17.10;;
16994;SDS011;8614;48.522;9.206;2023-03-01T18:10:24;22.93;;;18.43;;
16994;SDS011;8614;48.522;9.206;2023-03-01T18:12:51;24.47;;;18.70;;
16994;SDS011;8614;48.522;9.206;2023-03-01T18:15:18;21.07;;;18.70;;
16994;SDS011;8614;48.522;9.206;2023-03-01T18:17:45;21.33;;;17.73;;
16994;SDS011;8614;48.522;9.206;2023-03-01T18:20:13;18.93;;;16.93;;
16994;SDS011;8614;48.522;9.206;2023-03-01T18:22:42;18.97;;;16.93;;
16994;SDS011;8614;48.522;9.206;2023-03-01T18:25:09;21.77;;;18.40;;